createdAt,value
2018-06-28T00:01:10.385Z,16.80
2018-06-28T00:03:38.660Z,16.80
2018-06-28T00:06:07.033Z,16.77
2018-06-28T00:08:35.401Z,16.78
2018-06-28T00:11:03.689Z,16.85
2018-06-28T00:13:31.997Z,16.86
2018-06-28T00:16:00.266Z,16.71
2018-06-28T00:18:28.581Z,16.67
2018-06-28T00:20:56.857Z,16.67
2018-06-28T00:23:25.133Z,16.63
2018-06-28T00:25:53.429Z,16.57
2018-06-28T00:28:21.705Z,16.52
2018-06-28T00:30:49.968Z,16.54
2018-06-28T00:33:18.853Z,16.50
2018-06-28T00:35:47.129Z,16.44
2018-06-28T00:38:15.441Z,16.45
2018-06-28T00:40:43.721Z,16.47
2018-06-28T00:43:11.997Z,16.43
2018-06-28T00:45:40.278Z,16.35
2018-06-28T00:48:08.553Z,16.34
2018-06-28T00:50:36.893Z,16.31
2018-06-28T00:53:05.290Z,16.26
2018-06-28T00:55:33.549Z,16.16
2018-06-28T00:58:01.901Z,16.15
2018-06-28T01:00:30.222Z,16.14
2018-06-28T01:02:58.483Z,16.13
2018-06-28T01:05:26.789Z,16.21
2018-06-28T01:07:55.062Z,16.23
2018-06-28T01:10:23.344Z,16.17
2018-06-28T01:12:51.636Z,16.21
2018-06-28T01:15:19.901Z,16.13
2018-06-28T01:17:48.207Z,16.16
2018-06-28T01:20:16.553Z,16.04
2018-06-28T01:22:44.862Z,15.97
2018-06-28T01:25:13.140Z,15.90
2018-06-28T01:27:41.458Z,15.84
2018-06-28T01:30:09.763Z,15.83
2018-06-28T01:32:38.073Z,15.82
2018-06-28T01:35:06.353Z,15.80
2018-06-28T01:40:24.829Z,15.75
2018-06-28T01:43:10.157Z,15.86
2018-06-28T01:45:38.441Z,15.84
2018-06-28T01:48:06.717Z,15.75
2018-06-28T01:50:34.981Z,15.78
2018-06-28T01:53:03.314Z,15.62
2018-06-28T01:55:31.574Z,15.56
2018-06-28T01:57:59.861Z,15.68
2018-06-28T02:00:28.109Z,15.72
2018-06-28T02:02:56.372Z,15.74
2018-06-28T02:05:24.750Z,15.84
2018-06-28T02:07:52.998Z,15.78
2018-06-28T02:10:22.153Z,15.73
2018-06-28T02:12:50.418Z,15.63
2018-06-28T02:15:18.693Z,15.61
2018-06-28T02:17:47.021Z,15.61
2018-06-28T02:20:15.292Z,15.72
2018-06-28T02:22:43.650Z,15.70
2018-06-28T02:25:11.919Z,15.73
2018-06-28T02:27:40.161Z,15.74
2018-06-28T02:30:08.445Z,15.60
2018-06-28T02:32:36.707Z,15.61
2018-06-28T02:35:05.305Z,15.61
2018-06-28T02:37:33.617Z,15.64
2018-06-28T02:40:01.898Z,15.60
2018-06-28T02:42:30.169Z,15.69
2018-06-28T02:44:58.453Z,15.66
2018-06-28T02:47:26.719Z,15.66
2018-06-28T02:49:55.034Z,15.68
2018-06-28T02:52:23.385Z,15.68
2018-06-28T02:54:51.782Z,15.70
2018-06-28T02:57:20.065Z,15.72
2018-06-28T02:59:48.351Z,15.69
2018-06-28T03:02:16.646Z,15.68
2018-06-28T03:04:44.897Z,15.74
2018-06-28T03:07:13.171Z,15.66
2018-06-28T03:09:41.413Z,15.63
2018-06-28T03:12:09.721Z,15.70
2018-06-28T03:14:37.964Z,15.74
2018-06-28T03:17:06.305Z,15.75
2018-06-28T03:19:34.665Z,15.82
2018-06-28T03:22:02.935Z,15.87
2018-06-28T03:24:31.213Z,15.83
2018-06-28T03:26:59.498Z,15.90
2018-06-28T03:29:27.778Z,15.87
2018-06-28T03:31:56.065Z,15.87
2018-06-28T03:34:24.313Z,15.89
2018-06-28T03:36:52.583Z,15.93
2018-06-28T03:39:20.821Z,15.97
2018-06-28T03:41:49.119Z,16.03
2018-06-28T03:44:17.395Z,16.07
2018-06-28T03:46:45.705Z,16.16
2018-06-28T03:49:13.950Z,16.26
2018-06-28T03:51:42.203Z,16.31
2018-06-28T03:54:10.530Z,16.32
2018-06-28T03:56:39.126Z,16.25
2018-06-28T03:59:07.517Z,16.30
2018-06-28T04:01:35.761Z,16.40
2018-06-28T04:04:04.030Z,16.50
2018-06-28T04:06:32.312Z,16.55
2018-06-28T04:09:00.607Z,16.64
2018-06-28T04:11:28.874Z,16.69
2018-06-28T04:13:57.160Z,16.83
2018-06-28T04:16:25.440Z,16.78
2018-06-28T04:18:53.753Z,16.86
2018-06-28T04:21:22.026Z,16.99
2018-06-28T04:23:50.313Z,17.11
2018-06-28T04:26:18.565Z,17.16
2018-06-28T04:28:46.861Z,17.32
2018-06-28T04:31:15.125Z,17.40
2018-06-28T04:33:43.422Z,17.53
2018-06-28T04:36:11.681Z,17.59
2018-06-28T04:38:40.031Z,17.76
2018-06-28T04:41:08.301Z,17.87
2018-06-28T04:43:36.601Z,17.89
2018-06-28T04:46:04.953Z,17.97
2018-06-28T04:48:33.261Z,18.03
2018-06-28T04:51:01.537Z,18.04
2018-06-28T04:53:29.783Z,18.53
2018-06-28T04:55:58.086Z,18.73
2018-06-28T04:58:26.345Z,18.78
2018-06-28T05:00:54.685Z,18.64
2018-06-28T05:03:22.959Z,18.80
2018-06-28T05:05:51.359Z,19.14
2018-06-28T05:08:19.613Z,19.22
2018-06-28T05:10:47.917Z,19.06
2018-06-28T05:13:16.257Z,19.32
2018-06-28T05:15:44.547Z,19.32
2018-06-28T05:18:12.793Z,19.11
2018-06-28T05:20:41.088Z,19.25
2018-06-28T05:23:09.324Z,19.57
2018-06-28T05:25:37.608Z,19.52
2018-06-28T05:28:05.865Z,19.58
2018-06-28T05:30:34.153Z,19.69
2018-06-28T05:33:02.446Z,19.63
2018-06-28T05:35:30.694Z,19.99
2018-06-28T05:37:58.981Z,20.20
2018-06-28T05:40:27.271Z,20.10
2018-06-28T05:42:55.564Z,20.06
2018-06-28T05:45:23.821Z,19.79
2018-06-28T05:47:52.090Z,19.91
2018-06-28T05:50:20.337Z,20.04
2018-06-28T05:52:48.629Z,20.26
2018-06-28T05:55:16.952Z,20.22
2018-06-28T05:57:45.209Z,20.40
2018-06-28T06:00:13.465Z,20.38
2018-06-28T06:02:41.762Z,20.49
2018-06-28T06:05:10.022Z,20.65
2018-06-28T06:07:38.357Z,20.41
2018-06-28T06:10:06.639Z,20.49
2018-06-28T06:12:34.942Z,20.58
2018-06-28T06:15:03.206Z,20.68
2018-06-28T06:17:31.485Z,20.79
2018-06-28T06:19:59.797Z,21.04
2018-06-28T06:22:28.093Z,21.25
2018-06-28T06:24:56.349Z,21.45
2018-06-28T06:27:24.662Z,21.44
2018-06-28T06:29:52.919Z,21.38
2018-06-28T06:32:21.157Z,21.44
2018-06-28T06:34:49.649Z,21.45
2018-06-28T06:37:17.792Z,21.82
2018-06-28T06:39:46.058Z,21.62
2018-06-28T06:42:14.530Z,21.49
2018-06-28T06:44:42.909Z,21.43
2018-06-28T06:47:11.193Z,21.44
2018-06-28T06:49:39.475Z,21.61
2018-06-28T06:52:07.721Z,21.83
2018-06-28T06:54:36.105Z,22.03
2018-06-28T06:57:04.611Z,22.24
2018-06-28T06:59:32.962Z,22.57
2018-06-28T07:02:01.218Z,22.72
2018-06-28T07:04:29.541Z,22.02
2018-06-28T07:06:57.834Z,22.35
2018-06-28T07:09:26.768Z,22.71
2018-06-28T07:11:55.118Z,22.69
2018-06-28T07:14:23.339Z,22.92
2018-06-28T07:16:51.577Z,23.13
2018-06-28T07:19:19.817Z,23.33
2018-06-28T07:21:48.081Z,23.00
2018-06-28T07:24:16.335Z,23.13
2018-06-28T07:26:44.623Z,22.75
2018-06-28T07:29:12.893Z,22.82
2018-06-28T07:31:41.157Z,22.61
2018-06-28T07:34:09.590Z,22.14
2018-06-28T07:36:37.939Z,22.03
2018-06-28T07:39:09.995Z,22.09
2018-06-28T07:41:38.601Z,21.83
2018-06-28T07:44:06.865Z,21.74
2018-06-28T07:46:35.701Z,22.02
2018-06-28T07:49:04.024Z,21.72
2018-06-28T07:51:33.388Z,21.91
2018-06-28T07:54:02.217Z,21.95
2018-06-28T07:56:30.597Z,22.37
2018-06-28T07:58:58.841Z,22.31
2018-06-28T08:01:27.129Z,22.02
2018-06-28T08:03:55.371Z,22.32
2018-06-28T08:06:23.689Z,22.22
2018-06-28T08:08:51.926Z,22.08
2018-06-28T08:11:20.233Z,22.19
2018-06-28T08:13:48.729Z,22.31
2018-06-28T08:16:17.053Z,22.43
2018-06-28T08:18:45.365Z,22.71
2018-06-28T08:21:13.611Z,22.63
2018-06-28T08:23:41.892Z,22.83
2018-06-28T08:26:10.271Z,22.91
2018-06-28T08:28:38.566Z,22.59
2018-06-28T08:31:06.841Z,22.24
2018-06-28T08:33:35.104Z,22.36
2018-06-28T08:36:03.403Z,22.41
2018-06-28T08:38:31.617Z,22.48
2018-06-28T08:40:59.857Z,22.27
2018-06-28T08:43:28.117Z,21.87
2018-06-28T08:45:56.353Z,21.97
2018-06-28T08:48:24.614Z,21.95
2018-06-28T08:50:52.865Z,21.90
2018-06-28T08:53:21.129Z,21.74
2018-06-28T08:55:49.433Z,21.55
2018-06-28T08:58:17.783Z,21.86
2018-06-28T09:00:46.290Z,21.87
2018-06-28T09:03:14.801Z,21.75
2018-06-28T09:05:43.167Z,21.84
2018-06-28T09:08:11.377Z,21.80
2018-06-28T09:10:39.656Z,21.92
2018-06-28T09:13:08.153Z,22.14
2018-06-28T09:15:36.696Z,22.41
2018-06-28T09:18:05.090Z,22.33
2018-06-28T09:20:33.382Z,22.71
2018-06-28T09:23:01.878Z,23.07
2018-06-28T09:25:30.173Z,22.70
2018-06-28T09:27:58.509Z,22.86
2018-06-28T09:30:27.092Z,22.96
2018-06-28T09:32:55.714Z,23.30
2018-06-28T09:35:24.123Z,23.18
2018-06-28T09:37:52.512Z,23.18
2018-06-28T09:40:20.797Z,23.40
2018-06-28T09:42:50.196Z,23.66
2018-06-28T09:45:19.478Z,23.57
2018-06-28T09:47:48.174Z,23.47
2018-06-28T09:50:23.412Z,23.37
2018-06-28T09:52:52.221Z,23.26
2018-06-28T09:55:20.788Z,23.79
2018-06-28T09:57:49.415Z,23.43
2018-06-28T10:00:22.893Z,23.13
2018-06-28T10:02:51.084Z,23.41
2018-06-28T10:05:19.482Z,23.71
2018-06-28T10:07:47.745Z,23.49
2018-06-28T10:10:16.174Z,23.50
2018-06-28T10:12:44.487Z,23.63
2018-06-28T10:15:12.894Z,23.92
2018-06-28T10:17:41.579Z,23.76
2018-06-28T10:20:09.949Z,24.09
2018-06-28T10:22:38.237Z,23.95
2018-06-28T10:25:06.787Z,24.08
2018-06-28T10:27:35.303Z,24.36
2018-06-28T10:30:03.672Z,24.18
2018-06-28T10:32:32.124Z,23.63
2018-06-28T10:35:00.393Z,23.72
2018-06-28T10:37:29.749Z,23.55
2018-06-28T10:39:58.014Z,23.40
2018-06-28T10:42:26.314Z,23.47
2018-06-28T10:44:54.553Z,23.17
2018-06-28T10:47:22.841Z,23.31
2018-06-28T10:49:51.081Z,22.91
2018-06-28T10:52:19.374Z,23.04
2018-06-28T10:54:47.705Z,22.98
2018-06-28T10:57:16.029Z,23.17
2018-06-28T10:59:44.338Z,22.98
2018-06-28T11:02:12.781Z,23.04
2018-06-28T11:04:41.036Z,23.32
2018-06-28T11:07:09.313Z,22.99
2018-06-28T11:09:37.589Z,22.81
2018-06-28T11:12:06.151Z,22.99
2018-06-28T11:14:34.448Z,23.34
2018-06-28T11:17:02.710Z,23.19
2018-06-28T11:19:30.977Z,23.26
2018-06-28T11:21:59.213Z,23.52
2018-06-28T11:24:27.497Z,23.45
2018-06-28T11:26:55.778Z,23.64
2018-06-28T11:29:24.357Z,23.46
2018-06-28T11:31:52.606Z,23.77
2018-06-28T11:34:21.316Z,23.81
2018-06-28T11:36:49.641Z,23.72
2018-06-28T11:39:17.910Z,23.63
2018-06-28T11:41:46.145Z,23.47
2018-06-28T11:44:14.479Z,23.67
2018-06-28T11:46:42.725Z,23.87
2018-06-28T11:49:10.988Z,23.79
2018-06-28T11:51:39.232Z,23.63
2018-06-28T11:54:07.480Z,23.62
2018-06-28T11:56:35.772Z,23.65
2018-06-28T11:59:04.033Z,23.63
2018-06-28T12:01:32.313Z,23.77
2018-06-28T12:04:00.550Z,23.65
2018-06-28T12:06:28.829Z,23.88
2018-06-28T12:08:57.116Z,23.61
2018-06-28T12:11:25.406Z,23.50
2018-06-28T12:13:53.645Z,24.04
2018-06-28T12:16:21.921Z,23.81
2018-06-28T12:18:50.211Z,23.64
2018-06-28T12:21:18.496Z,23.61
2018-06-28T12:23:46.759Z,23.34
2018-06-28T12:26:15.077Z,23.50
2018-06-28T12:28:43.310Z,23.46
2018-06-28T12:31:11.650Z,23.36
2018-06-28T12:33:39.840Z,23.47
2018-06-28T12:36:08.274Z,23.53
2018-06-28T12:38:36.959Z,23.46
2018-06-28T12:41:05.229Z,23.38
2018-06-28T12:43:33.477Z,23.35
2018-06-28T12:46:01.765Z,23.83
2018-06-28T12:48:30.014Z,23.98
2018-06-28T12:50:58.301Z,23.61
2018-06-28T12:53:26.537Z,23.80
2018-06-28T12:56:27.084Z,24.09
2018-06-28T12:58:56.673Z,24.22
2018-06-28T13:01:25.789Z,24.22
2018-06-28T13:03:54.349Z,24.57
2018-06-28T13:06:22.833Z,24.49
2018-06-28T13:08:52.153Z,24.65
2018-06-28T13:11:20.457Z,24.39
2018-06-28T13:13:48.734Z,24.65
2018-06-28T13:16:18.017Z,24.88
2018-06-28T13:18:47.056Z,25.40
2018-06-28T13:21:15.281Z,24.90
2018-06-28T13:23:43.565Z,24.99
2018-06-28T13:26:12.937Z,24.63
2018-06-28T13:28:44.398Z,24.55
2018-06-28T13:31:12.697Z,24.39
2018-06-28T13:33:40.977Z,24.45
2018-06-28T13:36:09.315Z,24.23
2018-06-28T13:38:37.983Z,24.68
2018-06-28T13:41:06.559Z,24.81
2018-06-28T13:43:34.773Z,24.67
2018-06-28T13:46:03.129Z,25.32
2018-06-28T13:48:31.433Z,25.64
2018-06-28T13:50:59.733Z,26.58
2018-06-28T13:53:28.037Z,28.57
2018-06-28T13:55:56.412Z,31.93
2018-06-28T13:58:24.697Z,34.37
2018-06-28T14:00:53.077Z,35.99
2018-06-28T14:03:21.390Z,37.20
2018-06-28T14:05:49.615Z,38.24
2018-06-28T14:08:17.885Z,38.76
2018-06-28T14:10:46.190Z,41.64
2018-06-28T14:13:14.433Z,44.18
2018-06-28T14:15:42.713Z,45.61
2018-06-28T14:18:11.003Z,47.69
2018-06-28T14:20:39.303Z,47.36
2018-06-28T14:23:07.638Z,47.58
2018-06-28T14:25:35.937Z,47.32
2018-06-28T14:28:04.259Z,45.61
2018-06-28T14:30:32.538Z,45.93
2018-06-28T14:33:00.845Z,45.72
2018-06-28T14:35:29.102Z,45.60
2018-06-28T14:37:57.421Z,45.30
2018-06-28T14:40:25.669Z,43.34
2018-06-28T14:42:53.959Z,44.18
2018-06-28T14:45:22.205Z,43.98
2018-06-28T14:47:50.477Z,44.97
2018-06-28T14:50:18.749Z,46.19
2018-06-28T14:52:47.025Z,46.22
2018-06-28T14:55:15.294Z,45.32
2018-06-28T14:57:43.621Z,44.03
2018-06-28T15:00:11.893Z,42.42
2018-06-28T15:02:40.209Z,43.55
2018-06-28T15:05:09.133Z,44.64
2018-06-28T15:07:37.453Z,43.03
2018-06-28T15:10:05.834Z,43.53
2018-06-28T15:12:34.187Z,41.65
2018-06-28T15:15:02.579Z,43.97
2018-06-28T15:17:30.837Z,45.72
2018-06-28T15:19:59.118Z,46.69
2018-06-28T15:22:27.353Z,46.55
2018-06-28T15:24:55.620Z,46.35
2018-06-28T15:27:23.991Z,46.27
2018-06-28T15:29:52.349Z,45.15
2018-06-28T15:32:20.594Z,44.73
2018-06-28T15:34:48.857Z,43.46
2018-06-28T15:37:17.116Z,43.72
2018-06-28T15:39:45.376Z,45.46
2018-06-28T15:42:13.713Z,44.90
2018-06-28T15:44:41.998Z,45.04
2018-06-28T15:47:10.274Z,44.90
2018-06-28T15:49:38.560Z,45.14
2018-06-28T15:52:06.926Z,45.85
2018-06-28T15:54:35.145Z,45.12
2018-06-28T15:57:03.445Z,44.01
2018-06-28T15:59:31.908Z,43.37
2018-06-28T16:02:00.142Z,43.40
2018-06-28T16:04:28.433Z,43.68
2018-06-28T16:06:57.573Z,43.47
2018-06-28T16:09:26.005Z,44.42
2018-06-28T16:11:54.370Z,43.67
2018-06-28T16:14:22.745Z,44.52
2018-06-28T16:16:51.022Z,43.65
2018-06-28T16:19:19.278Z,43.79
2018-06-28T16:21:47.568Z,44.48
2018-06-28T16:24:15.809Z,44.74
2018-06-28T16:26:44.157Z,43.61
2018-06-28T16:29:12.521Z,44.09
2018-06-28T16:31:40.786Z,44.39
2018-06-28T16:34:09.045Z,44.11
2018-06-28T16:36:37.357Z,45.10
2018-06-28T16:39:08.355Z,44.57
2018-06-28T16:41:36.793Z,44.25
2018-06-28T16:44:05.050Z,44.52
2018-06-28T16:46:33.384Z,43.98
2018-06-28T16:49:01.598Z,43.40
2018-06-28T16:51:29.881Z,43.98
2018-06-28T16:53:58.151Z,42.95
2018-06-28T16:56:26.517Z,42.93
2018-06-28T16:58:54.770Z,43.62
2018-06-28T17:01:23.068Z,43.30
2018-06-28T17:03:51.332Z,43.14
2018-06-28T17:06:19.581Z,42.53
2018-06-28T17:08:47.881Z,42.48
2018-06-28T17:11:16.133Z,42.31
2018-06-28T17:13:44.491Z,42.39
2018-06-28T17:16:12.766Z,42.64
2018-06-28T17:18:41.056Z,42.70
2018-06-28T17:21:09.305Z,42.89
2018-06-28T17:23:37.572Z,42.64
2018-06-28T17:26:06.038Z,41.83
2018-06-28T17:28:34.308Z,41.51
2018-06-28T17:31:02.566Z,41.12
2018-06-28T17:33:30.877Z,40.67
2018-06-28T17:35:59.813Z,41.24
2018-06-28T17:38:28.117Z,41.41
2018-06-28T17:40:56.400Z,40.76
2018-06-28T17:43:24.686Z,40.71
2018-06-28T17:45:52.949Z,40.07
2018-06-28T17:48:21.365Z,38.19
2018-06-28T17:50:49.634Z,34.58
2018-06-28T17:53:18.318Z,32.50
2018-06-28T17:55:46.667Z,30.61
2018-06-28T17:58:14.937Z,29.36
2018-06-28T18:00:43.208Z,28.74
2018-06-28T18:03:11.473Z,28.43
2018-06-28T18:05:39.758Z,27.78
2018-06-28T18:08:08.033Z,27.42
2018-06-28T18:10:36.298Z,27.17
2018-06-28T18:13:04.537Z,26.91
2018-06-28T18:15:32.877Z,26.84
2018-06-28T18:18:02.182Z,26.73
2018-06-28T18:20:30.458Z,26.64
2018-06-28T18:22:58.721Z,26.35
2018-06-28T18:25:29.171Z,26.44
2018-06-28T18:27:57.664Z,26.16
2018-06-28T18:30:25.937Z,26.15
2018-06-28T18:32:54.197Z,26.03
2018-06-28T18:35:22.453Z,25.94
2018-06-28T18:37:50.737Z,25.83
2018-06-28T18:40:19.037Z,25.80
2018-06-28T18:42:47.357Z,25.66
2018-06-28T18:45:15.699Z,25.70
2018-06-28T18:47:44.242Z,25.59
2018-06-28T18:50:12.813Z,25.70
2018-06-28T18:52:42.254Z,25.53
2018-06-28T18:55:10.510Z,25.54
2018-06-28T18:57:38.876Z,25.49
2018-06-28T19:00:07.174Z,25.43
2018-06-28T19:02:35.497Z,25.30
2018-06-28T19:05:03.847Z,25.20
2018-06-28T19:07:32.125Z,25.16
2018-06-28T19:10:05.737Z,25.06
2018-06-28T19:12:34.029Z,24.86
2018-06-28T19:15:07.538Z,24.80
2018-06-28T19:17:36.090Z,24.72
2018-06-28T19:20:05.253Z,24.55
2018-06-28T19:22:38.865Z,24.55
2018-06-28T19:25:07.125Z,24.44
2018-06-28T19:27:35.393Z,24.38
2018-06-28T19:30:09.110Z,24.20
2018-06-28T19:32:37.389Z,24.07
2018-06-28T19:35:05.765Z,23.98
2018-06-28T19:37:39.454Z,23.88
2018-06-28T19:40:13.947Z,23.84
2018-06-28T19:42:47.531Z,23.65
2018-06-28T19:45:15.973Z,23.61
2018-06-28T19:47:44.249Z,23.64
2018-06-28T19:50:17.949Z,23.55
2018-06-28T19:52:51.645Z,23.45
2018-06-28T19:55:19.914Z,23.39
2018-06-28T19:57:48.217Z,23.37
2018-06-28T20:00:21.898Z,23.29
2018-06-28T20:02:55.369Z,23.11
2018-06-28T20:05:23.620Z,23.11
2018-06-28T20:07:51.957Z,23.04
2018-06-28T20:10:20.261Z,22.89
2018-06-28T20:12:53.645Z,22.88
2018-06-28T20:15:37.462Z,22.83
2018-06-28T20:18:11.034Z,22.73
2018-06-28T20:20:39.273Z,22.54
2018-06-28T20:23:07.577Z,22.42
2018-06-28T20:25:35.844Z,22.52
2018-06-28T20:28:09.492Z,22.56
2018-06-28T20:30:43.044Z,22.50
2018-06-28T20:33:16.468Z,22.43
2018-06-28T20:35:44.755Z,22.33
2018-06-28T20:38:12.997Z,22.21
2018-06-28T20:40:41.320Z,22.20
2018-06-28T20:43:10.637Z,22.19
2018-06-28T20:45:38.913Z,22.16
2018-06-28T20:48:07.200Z,21.95
2018-06-28T20:50:35.789Z,21.90
2018-06-28T20:53:04.061Z,21.88
2018-06-28T20:55:32.375Z,21.88
2018-06-28T20:58:00.640Z,21.77
2018-06-28T21:00:28.953Z,21.65
2018-06-28T21:02:57.261Z,21.52
2018-06-28T21:05:25.605Z,21.48
2018-06-28T21:07:53.890Z,21.38
2018-06-28T21:10:22.161Z,21.39
2018-06-28T21:12:50.433Z,21.23
2018-06-28T21:15:18.733Z,21.29
2018-06-28T21:17:46.985Z,21.26
2018-06-28T21:20:15.999Z,21.19
2018-06-28T21:22:44.282Z,21.11
2018-06-28T21:25:12.556Z,21.16
2018-06-28T21:27:40.857Z,21.16
2018-06-28T21:30:09.133Z,21.08
2018-06-28T21:32:37.625Z,21.00
2018-06-28T21:35:06.198Z,20.91
2018-06-28T21:37:35.489Z,20.99
2018-06-28T21:40:04.160Z,20.94
2018-06-28T21:42:32.435Z,20.90
2018-06-28T21:45:00.716Z,20.88
2018-06-28T21:47:29.004Z,20.86
2018-06-28T21:49:57.301Z,20.82
2018-06-28T21:52:27.410Z,20.70
2018-06-28T21:54:55.765Z,20.65
2018-06-28T21:57:24.316Z,20.63
2018-06-28T21:59:54.568Z,20.59
2018-06-28T22:02:22.809Z,20.56
2018-06-28T22:04:51.304Z,20.61
2018-06-28T22:07:21.094Z,20.49
2018-06-28T22:09:49.545Z,20.43
2018-06-28T22:12:17.809Z,20.31
2018-06-28T22:14:47.082Z,20.27
2018-06-28T22:17:16.372Z,20.31
2018-06-28T22:19:44.803Z,20.24
2018-06-28T22:22:13.240Z,20.25
2018-06-28T22:24:42.578Z,20.19
2018-06-28T22:27:10.841Z,20.16
2018-06-28T22:29:39.117Z,20.14
2018-06-28T22:32:07.377Z,20.13
2018-06-28T22:34:36.665Z,20.06
2018-06-28T22:37:04.929Z,20.05
2018-06-28T22:39:34.248Z,19.92
2018-06-28T22:42:02.522Z,20.00
2018-06-28T22:44:30.857Z,19.93
2018-06-28T22:47:00.248Z,19.86
2018-06-28T22:49:29.582Z,19.89
2018-06-28T22:51:57.853Z,19.84
2018-06-28T22:54:26.138Z,19.81
2018-06-28T22:56:54.445Z,19.79
2018-06-28T22:59:22.770Z,19.63
2018-06-28T23:01:51.051Z,19.66
2018-06-28T23:04:19.308Z,19.57
2018-06-28T23:06:47.600Z,19.56
2018-06-28T23:09:15.845Z,19.41
2018-06-28T23:11:44.129Z,19.33
2018-06-28T23:14:12.534Z,19.32
2018-06-28T23:16:40.829Z,19.42
2018-06-28T23:19:09.157Z,19.32
2018-06-28T23:21:37.362Z,19.32
2018-06-28T23:24:06.150Z,19.26
2018-06-28T23:26:34.416Z,19.21
2018-06-28T23:29:02.669Z,19.21
2018-06-28T23:31:30.985Z,19.14
2018-06-28T23:33:59.263Z,19.09
2018-06-28T23:36:27.677Z,19.07
2018-06-28T23:38:55.964Z,19.01
2018-06-28T23:41:24.227Z,18.96
2018-06-28T23:43:52.781Z,19.02
2018-06-28T23:46:21.036Z,19.03
2018-06-28T23:48:49.318Z,18.98
2018-06-28T23:51:17.569Z,18.95
2018-06-28T23:53:45.880Z,18.94
2018-06-28T23:56:14.125Z,18.88
2018-06-28T23:58:42.789Z,18.72
